createdAt,value
2023-02-23T00:02:04.379Z,7.50
2023-02-23T00:07:07.197Z,6.60
2023-02-23T00:12:10.198Z,7.00
2023-02-23T00:17:14.905Z,6.30
2023-02-23T00:22:18.586Z,7.30
2023-02-23T00:27:21.490Z,6.90
2023-02-23T00:32:24.580Z,7.50
2023-02-23T00:37:27.454Z,6.30
2023-02-23T00:42:32.420Z,10.20
2023-02-23T00:47:36.370Z,9.00
2023-02-23T00:52:40.381Z,8.50
2023-02-23T00:57:43.186Z,8.10
2023-02-23T01:02:49.401Z,7.70
2023-02-23T01:07:52.264Z,7.40
2023-02-23T01:12:55.102Z,8.10
2023-02-23T01:17:58.023Z,10.00
2023-02-23T01:23:01.823Z,7.80
2023-02-23T01:28:04.922Z,9.60
2023-02-23T01:33:07.999Z,10.50
2023-02-23T01:38:11.327Z,9.30
2023-02-23T01:43:39.634Z,14.30
2023-02-23T01:48:42.752Z,9.60
2023-02-23T01:53:52.749Z,9.70
2023-02-23T01:58:57.272Z,8.90
2023-02-23T02:04:06.461Z,9.40
2023-02-23T02:09:16.524Z,10.10
2023-02-23T02:14:27.370Z,9.60
2023-02-23T02:19:55.173Z,10.50
2023-02-23T02:25:19.674Z,9.30
2023-02-23T02:31:00.640Z,12.10
2023-02-23T02:36:22.972Z,10.80
2023-02-23T02:41:37.473Z,10.10
2023-02-23T02:46:41.837Z,10.80
2023-02-23T02:52:05.765Z,11.90
2023-02-23T02:57:08.620Z,11.90
2023-02-23T03:02:41.808Z,11.50
2023-02-23T03:08:17.473Z,12.90
2023-02-23T03:14:19.984Z,10.80
2023-02-23T03:19:48.368Z,11.20
2023-02-23T03:25:30.404Z,11.50
2023-02-23T03:31:35.411Z,10.20
2023-02-23T03:36:58.466Z,10.10
2023-02-23T03:42:21.977Z,10.70
2023-02-23T03:47:47.097Z,10.70
2023-02-23T03:53:13.075Z,12.10
2023-02-23T03:58:37.338Z,12.50
2023-02-23T04:03:58.838Z,10.70
2023-02-23T04:09:22.163Z,10.50
2023-02-23T04:14:34.995Z,11.80
2023-02-23T04:19:37.932Z,9.70
2023-02-23T04:24:40.864Z,10.30
2023-02-23T04:29:44.220Z,9.70
2023-02-23T04:34:47.055Z,12.10
2023-02-23T04:39:50.372Z,12.90
2023-02-23T04:44:53.427Z,10.80
2023-02-23T04:49:56.288Z,11.60
2023-02-23T04:54:59.244Z,13.30
2023-02-23T05:00:04.461Z,11.50
2023-02-23T05:05:09.417Z,10.50
2023-02-23T05:10:12.404Z,11.30
2023-02-23T05:15:15.351Z,12.00
2023-02-23T05:20:18.258Z,13.80
2023-02-23T05:25:21.159Z,11.90
2023-02-23T05:30:23.950Z,11.00
2023-02-23T05:35:26.767Z,9.90
2023-02-23T05:40:30.283Z,9.80
2023-02-23T05:45:33.374Z,10.30
2023-02-23T05:50:36.275Z,9.50
2023-02-23T05:55:39.032Z,10.60
2023-02-23T06:00:41.815Z,8.70
2023-02-23T06:05:56.979Z,8.00
2023-02-23T06:10:59.946Z,8.90
2023-02-23T06:16:02.964Z,10.60
2023-02-23T06:21:05.842Z,9.20
2023-02-23T06:26:09.932Z,10.10
2023-02-23T06:31:12.822Z,9.30
2023-02-23T06:36:15.847Z,10.40
2023-02-23T06:41:20.444Z,10.70
2023-02-23T06:46:24.751Z,12.20
2023-02-23T06:51:27.746Z,10.20
2023-02-23T06:56:30.506Z,8.50
2023-02-23T07:01:33.541Z,10.50
2023-02-23T07:06:37.234Z,9.90
2023-02-23T07:11:41.791Z,8.60
2023-02-23T07:16:44.781Z,10.40
2023-02-23T07:21:47.746Z,10.40
2023-02-23T07:26:52.153Z,12.80
2023-02-23T07:31:55.825Z,10.10
2023-02-23T07:36:59.006Z,13.00
2023-02-23T07:42:01.932Z,10.50
2023-02-23T07:47:05.821Z,11.30
2023-02-23T07:52:08.782Z,10.10
2023-02-23T07:57:12.466Z,10.50
2023-02-23T08:02:16.509Z,10.20
2023-02-23T08:07:20.820Z,12.40
2023-02-23T08:12:23.710Z,11.90
2023-02-23T08:17:27.544Z,11.40
2023-02-23T08:22:37.852Z,11.50
2023-02-23T08:27:46.943Z,11.70
2023-02-23T08:32:50.821Z,11.60
2023-02-23T08:37:54.029Z,14.80
2023-02-23T08:42:56.908Z,12.90
2023-02-23T08:48:00.045Z,12.50
2023-02-23T08:53:04.172Z,11.00
2023-02-23T08:58:10.769Z,12.80
2023-02-23T09:03:13.668Z,12.40
2023-02-23T09:08:16.719Z,10.70
2023-02-23T09:13:19.916Z,12.00
2023-02-23T09:18:24.499Z,13.70
2023-02-23T09:23:29.480Z,12.60
2023-02-23T09:28:34.016Z,10.50
2023-02-23T09:33:37.115Z,12.20
2023-02-23T09:38:40.190Z,11.30
2023-02-23T09:43:48.526Z,12.30
2023-02-23T09:48:52.872Z,11.10
2023-02-23T09:53:58.130Z,10.30
2023-02-23T09:59:01.248Z,11.30
2023-02-23T10:04:23.934Z,9.10
2023-02-23T10:10:00.323Z,11.80
2023-02-23T10:15:13.644Z,10.10
2023-02-23T10:20:59.000Z,11.50
2023-02-23T10:26:02.032Z,18.50
2023-02-23T10:31:27.927Z,12.20
2023-02-23T10:36:41.497Z,11.00
2023-02-23T10:41:44.449Z,12.40
2023-02-23T10:47:14.702Z,12.10
2023-02-23T10:52:46.991Z,11.80
2023-02-23T10:57:51.600Z,13.50
2023-02-23T11:02:54.505Z,11.70
2023-02-23T11:08:34.502Z,9.30
2023-02-23T11:13:44.568Z,9.70
2023-02-23T11:19:02.576Z,12.80
2023-02-23T11:24:25.946Z,10.90
2023-02-23T11:29:36.463Z,12.40
2023-02-23T11:34:41.009Z,12.20
2023-02-23T11:39:55.221Z,11.20
2023-02-23T11:45:26.561Z,9.40
2023-02-23T11:50:35.958Z,11.50
2023-02-23T11:55:39.390Z,9.20
2023-02-23T12:00:43.930Z,9.70
2023-02-23T12:05:53.265Z,9.30
2023-02-23T12:10:58.245Z,8.50
2023-02-23T12:16:29.161Z,12.50
2023-02-23T12:21:38.300Z,9.40
2023-02-23T12:27:00.004Z,9.30
2023-02-23T12:32:08.336Z,10.10
2023-02-23T12:37:28.036Z,8.70
2023-02-23T12:43:03.253Z,9.10
2023-02-23T12:48:15.147Z,9.30
2023-02-23T12:53:28.186Z,9.20
2023-02-23T12:58:33.993Z,9.20
2023-02-23T13:04:22.310Z,13.60
2023-02-23T13:09:44.425Z,9.00
2023-02-23T13:15:23.100Z,9.50
2023-02-23T13:20:36.058Z,11.70
2023-02-23T13:26:32.139Z,10.60
2023-02-23T13:31:39.720Z,9.60
2023-02-23T13:36:42.995Z,9.20
2023-02-23T13:42:01.175Z,11.00
2023-02-23T13:47:29.341Z,11.60
2023-02-23T13:52:41.090Z,10.60
2023-02-23T13:57:46.598Z,10.40
2023-02-23T14:02:49.909Z,10.90
2023-02-23T14:08:05.162Z,9.90
2023-02-23T14:13:15.579Z,10.20
2023-02-23T14:18:21.288Z,12.10
2023-02-23T14:23:26.301Z,11.70
2023-02-23T14:28:30.745Z,13.60
2023-02-23T14:33:48.692Z,10.10
2023-02-23T14:38:57.334Z,9.90
2023-02-23T14:49:35.157Z,11.00
2023-02-23T14:54:39.891Z,12.40
2023-02-23T14:59:43.079Z,11.20
2023-02-23T15:04:46.125Z,13.20
2023-02-23T15:09:49.039Z,11.90
2023-02-23T15:14:53.256Z,11.40
2023-02-23T15:20:14.308Z,10.30
2023-02-23T15:25:23.933Z,15.70
2023-02-23T15:30:31.894Z,11.10
2023-02-23T15:36:08.061Z,15.00
2023-02-23T15:41:32.687Z,12.40
2023-02-23T15:46:35.764Z,13.40
2023-02-23T15:51:48.736Z,13.70
2023-02-23T15:56:57.245Z,14.70
2023-02-23T16:02:02.163Z,14.70
2023-02-23T16:07:23.601Z,13.60
2023-02-23T16:12:32.734Z,14.70
2023-02-23T16:17:52.603Z,16.00
2023-02-23T16:22:55.994Z,14.80
2023-02-23T16:28:10.356Z,17.40
2023-02-23T16:33:22.855Z,21.00
2023-02-23T16:38:28.557Z,25.50
2023-02-23T16:43:37.432Z,27.90
2023-02-23T16:48:40.859Z,28.80
2023-02-23T16:53:44.405Z,25.30
2023-02-23T16:58:55.935Z,28.70
2023-02-23T17:03:59.209Z,36.10
2023-02-23T17:09:02.031Z,36.40
2023-02-23T17:14:04.800Z,28.90
2023-02-23T17:19:07.721Z,34.00
2023-02-23T17:24:10.590Z,28.30
2023-02-23T17:29:13.808Z,30.60
2023-02-23T17:34:16.644Z,34.70
2023-02-23T17:39:19.514Z,33.20
2023-02-23T17:44:22.391Z,29.70
2023-02-23T17:49:27.891Z,32.50
2023-02-23T17:54:30.732Z,31.30
2023-02-23T17:59:33.708Z,28.80
2023-02-23T18:04:36.912Z,31.30
2023-02-23T18:09:39.884Z,30.60
2023-02-23T18:14:42.974Z,35.80
2023-02-23T18:20:21.055Z,31.50
2023-02-23T18:25:27.665Z,32.80
2023-02-23T18:30:30.587Z,34.60
2023-02-23T18:35:42.272Z,32.70
2023-02-23T18:40:45.232Z,33.90
2023-02-23T18:45:49.471Z,33.10
2023-02-23T18:50:56.651Z,25.70
2023-02-23T18:56:05.837Z,27.30
2023-02-23T19:01:18.366Z,28.60
2023-02-23T19:06:23.132Z,30.70
2023-02-23T19:11:30.966Z,30.50
2023-02-23T19:16:35.002Z,26.70
2023-02-23T19:21:38.026Z,25.80
2023-02-23T19:26:40.875Z,27.70
2023-02-23T19:31:45.949Z,26.90
2023-02-23T19:36:49.471Z,26.90
2023-02-23T19:41:52.281Z,28.10
2023-02-23T19:46:55.139Z,26.80
2023-02-23T19:51:58.177Z,31.20
2023-02-23T19:57:01.560Z,33.50
2023-02-23T20:02:04.903Z,33.10
2023-02-23T20:07:11.663Z,32.50
2023-02-23T20:12:14.532Z,34.40
2023-02-23T20:17:18.584Z,32.80
2023-02-23T20:22:21.350Z,31.00
2023-02-23T20:27:24.227Z,33.30
2023-02-23T20:32:27.698Z,35.30
2023-02-23T20:37:31.320Z,36.70
2023-02-23T20:42:34.187Z,33.40
2023-02-23T20:47:38.716Z,37.80
2023-02-23T20:52:42.231Z,38.50
2023-02-23T20:57:46.600Z,37.70
2023-02-23T21:02:55.544Z,38.70
2023-02-23T21:08:04.419Z,37.30
2023-02-23T21:13:10.428Z,37.30
2023-02-23T21:18:13.384Z,41.40
2023-02-23T21:23:20.407Z,41.00
2023-02-23T21:28:23.326Z,37.70
2023-02-23T21:33:57.375Z,39.90
2023-02-23T21:39:00.466Z,38.10
2023-02-23T21:44:08.136Z,37.90
2023-02-23T21:49:11.189Z,34.70
2023-02-23T21:54:14.042Z,36.60
2023-02-23T21:59:16.795Z,36.40
2023-02-23T22:04:19.623Z,36.60
2023-02-23T22:09:22.513Z,36.00
2023-02-23T22:14:25.457Z,33.90
2023-02-23T22:19:28.331Z,38.20
2023-02-23T22:24:31.612Z,39.30
2023-02-23T22:29:34.747Z,37.40
2023-02-23T22:34:38.285Z,34.80
2023-02-23T22:39:42.989Z,36.00
2023-02-23T22:44:45.707Z,40.00
2023-02-23T22:49:48.438Z,38.60
2023-02-23T22:54:51.217Z,37.40
2023-02-23T23:00:00.120Z,42.80
2023-02-23T23:05:06.804Z,44.80
2023-02-23T23:10:12.080Z,42.90
2023-02-23T23:15:19.424Z,44.20
2023-02-23T23:20:29.579Z,45.30
2023-02-23T23:25:32.833Z,42.00
2023-02-23T23:30:37.063Z,42.70
2023-02-23T23:35:42.735Z,44.30
2023-02-23T23:40:48.734Z,43.10
2023-02-23T23:45:52.061Z,40.20
2023-02-23T23:50:56.239Z,43.00
2023-02-23T23:56:09.081Z,44.40
